sensor_id;sensor_type;location;lat;lon;timestamp;temperature;humidity
59999;DHT22;45859;51.378;6.736;2023-05-07T00:02:03;15.00;99.90
59999;DHT22;45859;51.378;6.736;2023-05-07T00:04:29;15.00;99.90
59999;DHT22;45859;51.378;6.736;2023-05-07T00:07:01;15.00;99.90
59999;DHT22;45859;51.378;6.736;2023-05-07T00:09:27;15.00;99.90
59999;DHT22;45859;51.378;6.736;2023-05-07T00:11:52;14.90;99.90
59999;DHT22;45859;51.378;6.736;2023-05-07T00:14:18;14.90;99.90
59999;DHT22;45859;51.378;6.736;2023-05-07T00:16:44;14.90;99.90
59999;DHT22;45859;51.378;6.736;2023-05-07T00:19:09;14.90;99.90
59999;DHT22;45859;51.378;6.736;2023-05-07T00:21:35;14.90;99.90
59999;DHT22;45859;51.378;6.736;2023-05-07T00:24:01;14.90;99.90
59999;DHT22;45859;51.378;6.736;2023-05-07T00:26:27;14.90;99.90
59999;DHT22;45859;51.378;6.736;2023-05-07T00:28:52;14.80;99.90
59999;DHT22;45859;51.378;6.736;2023-05-07T00:31:18;14.80;99.90
59999;DHT22;45859;51.378;6.736;2023-05-07T00:33:43;14.80;99.90
59999;DHT22;45859;51.378;6.736;2023-05-07T00:36:09;14.80;99.90
59999;DHT22;45859;51.378;6.736;2023-05-07T00:38:35;14.80;99.90
59999;DHT22;45859;51.378;6.736;2023-05-07T00:41:00;14.70;99.90
59999;DHT22;45859;51.378;6.736;2023-05-07T00:43:27;14.70;99.90
59999;DHT22;45859;51.378;6.736;2023-05-07T00:45:54;14.70;99.90
59999;DHT22;45859;51.378;6.736;2023-05-07T00:48:20;14.60;99.90
59999;DHT22;45859;51.378;6.736;2023-05-07T00:50:46;14.60;99.90
59999;DHT22;45859;51.378;6.736;2023-05-07T00:53:13;14.50;99.90
59999;DHT22;45859;51.378;6.736;2023-05-07T00:55:39;14.50;99.90
59999;DHT22;45859;51.378;6.736;2023-05-07T00:58:05;14.40;99.90
59999;DHT22;45859;51.378;6.736;2023-05-07T01:00:31;14.30;99.90
59999;DHT22;45859;51.378;6.736;2023-05-07T01:02:57;14.20;99.90
59999;DHT22;45859;51.378;6.736;2023-05-07T01:05:23;14.10;99.90
59999;DHT22;45859;51.378;6.736;2023-05-07T01:07:51;14.10;99.90
59999;DHT22;45859;51.378;6.736;2023-05-07T01:10:17;14.10;99.90
59999;DHT22;45859;51.378;6.736;2023-05-07T01:12:44;14.10;99.90
59999;DHT22;45859;51.378;6.736;2023-05-07T01:15:11;14.00;99.90
59999;DHT22;45859;51.378;6.736;2023-05-07T01:17:38;14.00;99.90
59999;DHT22;45859;51.378;6.736;2023-05-07T01:20:08;14.00;99.90
59999;DHT22;45859;51.378;6.736;2023-05-07T01:22:37;14.00;99.90
59999;DHT22;45859;51.378;6.736;2023-05-07T01:25:06;14.00;99.90
59999;DHT22;45859;51.378;6.736;2023-05-07T01:27:35;14.00;99.90
59999;DHT22;45859;51.378;6.736;2023-05-07T01:30:03;14.00;99.90
59999;DHT22;45859;51.378;6.736;2023-05-07T01:32:48;14.00;99.90
59999;DHT22;45859;51.378;6.736;2023-05-07T01:35:19;14.00;99.90
59999;DHT22;45859;51.378;6.736;2023-05-07T01:37:47;14.00;99.90
59999;DHT22;45859;51.378;6.736;2023-05-07T01:40:13;14.00;99.90
59999;DHT22;45859;51.378;6.736;2023-05-07T01:42:39;14.00;99.90
59999;DHT22;45859;51.378;6.736;2023-05-07T01:45:07;14.10;99.90
59999;DHT22;45859;51.378;6.736;2023-05-07T01:47:33;14.00;99.90
59999;DHT22;45859;51.378;6.736;2023-05-07T01:49:59;14.00;99.90
59999;DHT22;45859;51.378;6.736;2023-05-07T01:52:26;14.00;99.90
59999;DHT22;45859;51.378;6.736;2023-05-07T01:54:52;14.00;99.90
59999;DHT22;45859;51.378;6.736;2023-05-07T01:57:18;14.00;99.90
59999;DHT22;45859;51.378;6.736;2023-05-07T01:59:44;14.00;99.90
59999;DHT22;45859;51.378;6.736;2023-05-07T02:02:09;13.90;99.90
59999;DHT22;45859;51.378;6.736;2023-05-07T02:04:35;13.90;99.90
59999;DHT22;45859;51.378;6.736;2023-05-07T02:07:01;13.90;99.90
59999;DHT22;45859;51.378;6.736;2023-05-07T02:09:27;13.90;99.90
59999;DHT22;45859;51.378;6.736;2023-05-07T02:11:53;13.90;99.90
59999;DHT22;45859;51.378;6.736;2023-05-07T02:14:19;13.90;99.90
59999;DHT22;45859;51.378;6.736;2023-05-07T02:16:46;13.90;99.90
59999;DHT22;45859;51.378;6.736;2023-05-07T02:19:11;13.90;99.90
59999;DHT22;45859;51.378;6.736;2023-05-07T02:21:37;13.90;99.90
59999;DHT22;45859;51.378;6.736;2023-05-07T02:24:03;13.90;99.90
59999;DHT22;45859;51.378;6.736;2023-05-07T02:26:28;13.90;99.90
59999;DHT22;45859;51.378;6.736;2023-05-07T02:28:54;14.00;99.90
59999;DHT22;45859;51.378;6.736;2023-05-07T02:31:20;13.90;99.90
59999;DHT22;45859;51.378;6.736;2023-05-07T02:33:45;13.90;99.90
59999;DHT22;45859;51.378;6.736;2023-05-07T02:36:12;13.90;99.90
59999;DHT22;45859;51.378;6.736;2023-05-07T02:38:37;13.90;99.90
59999;DHT22;45859;51.378;6.736;2023-05-07T02:41:03;13.90;99.90
59999;DHT22;45859;51.378;6.736;2023-05-07T02:43:29;13.90;99.90
59999;DHT22;45859;51.378;6.736;2023-05-07T02:46:03;13.80;99.90
59999;DHT22;45859;51.378;6.736;2023-05-07T02:48:28;13.80;99.90
59999;DHT22;45859;51.378;6.736;2023-05-07T02:50:54;13.80;99.90
59999;DHT22;45859;51.378;6.736;2023-05-07T02:53:20;13.70;99.90
59999;DHT22;45859;51.378;6.736;2023-05-07T02:55:45;13.80;99.90
59999;DHT22;45859;51.378;6.736;2023-05-07T02:58:11;13.70;99.90
59999;DHT22;45859;51.378;6.736;2023-05-07T03:00:37;13.70;99.90
59999;DHT22;45859;51.378;6.736;2023-05-07T03:03:03;13.70;99.90
59999;DHT22;45859;51.378;6.736;2023-05-07T03:05:28;13.70;99.90
59999;DHT22;45859;51.378;6.736;2023-05-07T03:07:54;13.60;99.90
59999;DHT22;45859;51.378;6.736;2023-05-07T03:10:20;13.60;99.90
59999;DHT22;45859;51.378;6.736;2023-05-07T03:12:45;13.50;99.90
59999;DHT22;45859;51.378;6.736;2023-05-07T03:15:11;13.50;99.90
59999;DHT22;45859;51.378;6.736;2023-05-07T03:17:38;13.40;99.90
59999;DHT22;45859;51.378;6.736;2023-05-07T03:20:04;13.40;99.90
59999;DHT22;45859;51.378;6.736;2023-05-07T03:22:30;13.40;99.90
59999;DHT22;45859;51.378;6.736;2023-05-07T03:24:56;13.40;99.90
59999;DHT22;45859;51.378;6.736;2023-05-07T03:27:21;13.40;99.90
59999;DHT22;45859;51.378;6.736;2023-05-07T03:29:47;13.40;99.90
59999;DHT22;45859;51.378;6.736;2023-05-07T03:32:13;13.40;99.90
59999;DHT22;45859;51.378;6.736;2023-05-07T03:34:39;13.60;99.90
59999;DHT22;45859;51.378;6.736;2023-05-07T03:37:05;13.40;99.90
59999;DHT22;45859;51.378;6.736;2023-05-07T03:39:30;13.40;99.90
59999;DHT22;45859;51.378;6.736;2023-05-07T03:41:57;13.30;99.90
59999;DHT22;45859;51.378;6.736;2023-05-07T03:44:23;13.30;99.90
59999;DHT22;45859;51.378;6.736;2023-05-07T03:46:49;13.40;99.90
59999;DHT22;45859;51.378;6.736;2023-05-07T03:49:14;13.40;99.90
59999;DHT22;45859;51.378;6.736;2023-05-07T03:51:40;13.40;99.90
59999;DHT22;45859;51.378;6.736;2023-05-07T03:54:06;13.40;99.90
59999;DHT22;45859;51.378;6.736;2023-05-07T03:56:32;13.40;99.90
59999;DHT22;45859;51.378;6.736;2023-05-07T03:58:57;13.40;99.90
59999;DHT22;45859;51.378;6.736;2023-05-07T04:01:23;13.40;99.90
59999;DHT22;45859;51.378;6.736;2023-05-07T04:03:49;13.40;99.90
59999;DHT22;45859;51.378;6.736;2023-05-07T04:06:16;13.40;99.90
59999;DHT22;45859;51.378;6.736;2023-05-07T04:08:43;13.30;99.90
59999;DHT22;45859;51.378;6.736;2023-05-07T04:11:08;13.30;99.90
59999;DHT22;45859;51.378;6.736;2023-05-07T04:13:34;13.30;99.90
59999;DHT22;45859;51.378;6.736;2023-05-07T04:16:02;13.40;99.90
59999;DHT22;45859;51.378;6.736;2023-05-07T04:18:28;13.30;99.90
59999;DHT22;45859;51.378;6.736;2023-05-07T04:20:54;13.40;99.90
59999;DHT22;45859;51.378;6.736;2023-05-07T04:23:20;13.40;99.90
59999;DHT22;45859;51.378;6.736;2023-05-07T04:25:46;13.50;99.90
59999;DHT22;45859;51.378;6.736;2023-05-07T04:28:12;13.40;99.90
59999;DHT22;45859;51.378;6.736;2023-05-07T04:30:38;13.50;99.90
59999;DHT22;45859;51.378;6.736;2023-05-07T04:33:04;13.50;99.90
59999;DHT22;45859;51.378;6.736;2023-05-07T04:35:29;13.50;99.90
59999;DHT22;45859;51.378;6.736;2023-05-07T04:37:55;13.50;99.90
59999;DHT22;45859;51.378;6.736;2023-05-07T04:40:21;13.50;99.90
59999;DHT22;45859;51.378;6.736;2023-05-07T04:42:46;13.60;99.90
59999;DHT22;45859;51.378;6.736;2023-05-07T04:45:12;13.60;99.90
59999;DHT22;45859;51.378;6.736;2023-05-07T04:47:38;13.70;99.90
59999;DHT22;45859;51.378;6.736;2023-05-07T04:50:05;13.70;99.90
59999;DHT22;45859;51.378;6.736;2023-05-07T04:52:31;13.70;99.90
59999;DHT22;45859;51.378;6.736;2023-05-07T04:54:59;13.70;99.90
59999;DHT22;45859;51.378;6.736;2023-05-07T04:57:25;13.80;99.90
59999;DHT22;45859;51.378;6.736;2023-05-07T04:59:52;13.90;99.90
59999;DHT22;45859;51.378;6.736;2023-05-07T05:02:17;14.00;99.90
59999;DHT22;45859;51.378;6.736;2023-05-07T05:04:43;14.00;99.90
59999;DHT22;45859;51.378;6.736;2023-05-07T05:07:09;14.00;99.90
59999;DHT22;45859;51.378;6.736;2023-05-07T05:09:34;14.20;99.90
59999;DHT22;45859;51.378;6.736;2023-05-07T05:12:00;14.20;99.90
59999;DHT22;45859;51.378;6.736;2023-05-07T05:14:26;14.20;99.90
59999;DHT22;45859;51.378;6.736;2023-05-07T05:16:51;14.30;99.90
59999;DHT22;45859;51.378;6.736;2023-05-07T05:19:17;14.40;99.90
59999;DHT22;45859;51.378;6.736;2023-05-07T05:21:43;14.40;99.90
59999;DHT22;45859;51.378;6.736;2023-05-07T05:24:08;14.50;99.90
59999;DHT22;45859;51.378;6.736;2023-05-07T05:26:34;14.50;99.90
59999;DHT22;45859;51.378;6.736;2023-05-07T05:29:00;14.60;99.90
59999;DHT22;45859;51.378;6.736;2023-05-07T05:31:26;14.60;99.90
59999;DHT22;45859;51.378;6.736;2023-05-07T05:33:51;14.70;99.90
59999;DHT22;45859;51.378;6.736;2023-05-07T05:36:17;14.80;99.90
59999;DHT22;45859;51.378;6.736;2023-05-07T05:38:43;14.90;99.90
59999;DHT22;45859;51.378;6.736;2023-05-07T05:41:10;15.00;99.90
59999;DHT22;45859;51.378;6.736;2023-05-07T05:43:35;15.10;99.90
59999;DHT22;45859;51.378;6.736;2023-05-07T05:46:01;15.20;99.90
59999;DHT22;45859;51.378;6.736;2023-05-07T05:48:28;15.40;99.90
59999;DHT22;45859;51.378;6.736;2023-05-07T05:50:54;15.50;99.90
59999;DHT22;45859;51.378;6.736;2023-05-07T05:53:20;15.80;99.90
59999;DHT22;45859;51.378;6.736;2023-05-07T05:55:45;15.90;99.90
59999;DHT22;45859;51.378;6.736;2023-05-07T05:58:11;16.00;99.90
59999;DHT22;45859;51.378;6.736;2023-05-07T06:00:37;16.10;99.90
59999;DHT22;45859;51.378;6.736;2023-05-07T06:03:03;16.30;99.90
59999;DHT22;45859;51.378;6.736;2023-05-07T06:05:29;16.50;99.90
59999;DHT22;45859;51.378;6.736;2023-05-07T06:07:54;16.70;99.90
59999;DHT22;45859;51.378;6.736;2023-05-07T06:10:20;16.70;99.90
59999;DHT22;45859;51.378;6.736;2023-05-07T06:12:46;16.80;99.90
59999;DHT22;45859;51.378;6.736;2023-05-07T06:15:11;17.00;99.90
59999;DHT22;45859;51.378;6.736;2023-05-07T06:17:37;17.20;99.90
59999;DHT22;45859;51.378;6.736;2023-05-07T06:20:03;17.20;99.90
59999;DHT22;45859;51.378;6.736;2023-05-07T06:22:29;17.10;99.90
59999;DHT22;45859;51.378;6.736;2023-05-07T06:24:55;17.10;99.90
59999;DHT22;45859;51.378;6.736;2023-05-07T06:27:20;17.00;99.90
59999;DHT22;45859;51.378;6.736;2023-05-07T06:29:48;16.90;99.90
59999;DHT22;45859;51.378;6.736;2023-05-07T06:32:14;16.70;99.90
59999;DHT22;45859;51.378;6.736;2023-05-07T06:34:40;16.60;99.90
59999;DHT22;45859;51.378;6.736;2023-05-07T06:37:06;16.70;99.90
59999;DHT22;45859;51.378;6.736;2023-05-07T06:39:32;16.80;99.90
59999;DHT22;45859;51.378;6.736;2023-05-07T06:41:59;16.90;99.90
59999;DHT22;45859;51.378;6.736;2023-05-07T06:44:25;17.00;99.90
59999;DHT22;45859;51.378;6.736;2023-05-07T06:46:51;17.20;99.90
59999;DHT22;45859;51.378;6.736;2023-05-07T06:49:17;17.30;99.90
59999;DHT22;45859;51.378;6.736;2023-05-07T06:51:42;17.30;99.90
59999;DHT22;45859;51.378;6.736;2023-05-07T06:54:08;17.40;99.90
59999;DHT22;45859;51.378;6.736;2023-05-07T06:56:34;17.50;99.90
59999;DHT22;45859;51.378;6.736;2023-05-07T06:59:03;17.60;99.90
59999;DHT22;45859;51.378;6.736;2023-05-07T07:01:29;17.80;99.90
59999;DHT22;45859;51.378;6.736;2023-05-07T07:03:55;17.90;99.90
59999;DHT22;45859;51.378;6.736;2023-05-07T07:06:20;18.00;99.90
59999;DHT22;45859;51.378;6.736;2023-05-07T07:08:46;18.40;99.90
59999;DHT22;45859;51.378;6.736;2023-05-07T07:11:12;18.50;99.90
59999;DHT22;45859;51.378;6.736;2023-05-07T07:13:37;18.80;99.90
59999;DHT22;45859;51.378;6.736;2023-05-07T07:16:03;19.10;99.90
59999;DHT22;45859;51.378;6.736;2023-05-07T07:18:29;19.10;99.90
59999;DHT22;45859;51.378;6.736;2023-05-07T07:20:55;19.10;99.90
59999;DHT22;45859;51.378;6.736;2023-05-07T07:23:21;19.00;99.90
59999;DHT22;45859;51.378;6.736;2023-05-07T07:25:46;18.90;99.90
59999;DHT22;45859;51.378;6.736;2023-05-07T07:28:12;19.10;99.90
59999;DHT22;45859;51.378;6.736;2023-05-07T07:30:39;19.10;99.90
59999;DHT22;45859;51.378;6.736;2023-05-07T07:33:05;19.10;99.90
59999;DHT22;45859;51.378;6.736;2023-05-07T07:35:31;19.60;99.90
59999;DHT22;45859;51.378;6.736;2023-05-07T07:37:57;20.10;99.90
59999;DHT22;45859;51.378;6.736;2023-05-07T07:40:23;20.70;99.90
59999;DHT22;45859;51.378;6.736;2023-05-07T07:42:49;21.20;99.90
59999;DHT22;45859;51.378;6.736;2023-05-07T07:45:14;21.50;99.90
59999;DHT22;45859;51.378;6.736;2023-05-07T07:47:40;21.60;99.90
59999;DHT22;45859;51.378;6.736;2023-05-07T07:50:07;21.60;99.90
59999;DHT22;45859;51.378;6.736;2023-05-07T07:52:33;21.50;99.90
59999;DHT22;45859;51.378;6.736;2023-05-07T07:54:59;21.10;99.90
59999;DHT22;45859;51.378;6.736;2023-05-07T07:57:24;21.80;99.90
59999;DHT22;45859;51.378;6.736;2023-05-07T07:59:50;23.20;99.90
59999;DHT22;45859;51.378;6.736;2023-05-07T08:02:17;24.10;99.90
59999;DHT22;45859;51.378;6.736;2023-05-07T08:04:43;24.30;99.90
59999;DHT22;45859;51.378;6.736;2023-05-07T08:07:12;24.70;99.90
59999;DHT22;45859;51.378;6.736;2023-05-07T08:09:38;25.30;99.90
59999;DHT22;45859;51.378;6.736;2023-05-07T08:12:05;25.90;99.90
59999;DHT22;45859;51.378;6.736;2023-05-07T08:14:31;26.00;99.90
59999;DHT22;45859;51.378;6.736;2023-05-07T08:16:57;26.10;99.90
59999;DHT22;45859;51.378;6.736;2023-05-07T08:19:23;25.40;99.90
59999;DHT22;45859;51.378;6.736;2023-05-07T08:21:48;25.70;99.90
59999;DHT22;45859;51.378;6.736;2023-05-07T08:24:14;26.10;99.90
59999;DHT22;45859;51.378;6.736;2023-05-07T08:26:41;25.90;99.90
59999;DHT22;45859;51.378;6.736;2023-05-07T08:29:07;25.80;99.90
59999;DHT22;45859;51.378;6.736;2023-05-07T08:31:32;25.30;99.90
59999;DHT22;45859;51.378;6.736;2023-05-07T08:33:58;25.60;99.90
59999;DHT22;45859;51.378;6.736;2023-05-07T08:36:24;25.40;99.90
59999;DHT22;45859;51.378;6.736;2023-05-07T08:38:51;25.60;99.90
59999;DHT22;45859;51.378;6.736;2023-05-07T08:41:17;26.00;99.90
59999;DHT22;45859;51.378;6.736;2023-05-07T08:43:50;26.20;99.90
59999;DHT22;45859;51.378;6.736;2023-05-07T08:46:18;25.60;99.90
59999;DHT22;45859;51.378;6.736;2023-05-07T08:48:45;25.30;99.90
59999;DHT22;45859;51.378;6.736;2023-05-07T08:51:16;25.10;99.90
59999;DHT22;45859;51.378;6.736;2023-05-07T08:53:42;25.20;99.90
59999;DHT22;45859;51.378;6.736;2023-05-07T08:56:11;25.10;99.90
59999;DHT22;45859;51.378;6.736;2023-05-07T08:58:37;25.60;99.90
59999;DHT22;45859;51.378;6.736;2023-05-07T09:01:12;25.50;99.90
59999;DHT22;45859;51.378;6.736;2023-05-07T09:03:39;25.40;99.90
59999;DHT22;45859;51.378;6.736;2023-05-07T09:06:05;25.80;99.90
59999;DHT22;45859;51.378;6.736;2023-05-07T09:08:35;25.70;99.90
59999;DHT22;45859;51.378;6.736;2023-05-07T09:11:01;25.70;99.90
59999;DHT22;45859;51.378;6.736;2023-05-07T09:13:28;26.50;99.90
59999;DHT22;45859;51.378;6.736;2023-05-07T09:15:55;27.10;99.90
59999;DHT22;45859;51.378;6.736;2023-05-07T09:18:21;27.00;99.90
59999;DHT22;45859;51.378;6.736;2023-05-07T09:20:47;27.00;99.90
59999;DHT22;45859;51.378;6.736;2023-05-07T09:23:12;26.50;99.90
59999;DHT22;45859;51.378;6.736;2023-05-07T09:25:39;26.20;99.90
59999;DHT22;45859;51.378;6.736;2023-05-07T09:28:05;25.90;99.90
59999;DHT22;45859;51.378;6.736;2023-05-07T09:30:33;25.50;99.90
59999;DHT22;45859;51.378;6.736;2023-05-07T09:32:59;25.80;99.90
59999;DHT22;45859;51.378;6.736;2023-05-07T09:35:26;26.30;99.90
59999;DHT22;45859;51.378;6.736;2023-05-07T09:37:56;26.90;99.90
59999;DHT22;45859;51.378;6.736;2023-05-07T09:40:27;26.40;99.90
59999;DHT22;45859;51.378;6.736;2023-05-07T09:42:53;25.60;99.90
59999;DHT22;45859;51.378;6.736;2023-05-07T09:45:26;25.80;99.90
59999;DHT22;45859;51.378;6.736;2023-05-07T09:47:56;25.40;99.90
59999;DHT22;45859;51.378;6.736;2023-05-07T09:50:29;25.50;99.90
59999;DHT22;45859;51.378;6.736;2023-05-07T09:52:56;25.80;99.90
59999;DHT22;45859;51.378;6.736;2023-05-07T09:55:23;26.10;99.90
59999;DHT22;45859;51.378;6.736;2023-05-07T09:57:53;25.90;99.90
59999;DHT22;45859;51.378;6.736;2023-05-07T10:00:20;25.70;99.90
59999;DHT22;45859;51.378;6.736;2023-05-07T10:02:51;25.80;99.90
59999;DHT22;45859;51.378;6.736;2023-05-07T10:05:22;26.00;99.90
59999;DHT22;45859;51.378;6.736;2023-05-07T10:07:48;25.30;99.90
59999;DHT22;45859;51.378;6.736;2023-05-07T10:10:14;25.20;99.90
59999;DHT22;45859;51.378;6.736;2023-05-07T10:12:41;25.30;99.90
59999;DHT22;45859;51.378;6.736;2023-05-07T10:15:08;25.60;99.90
59999;DHT22;45859;51.378;6.736;2023-05-07T10:17:40;25.50;99.90
59999;DHT22;45859;51.378;6.736;2023-05-07T10:20:07;25.50;99.90
59999;DHT22;45859;51.378;6.736;2023-05-07T10:22:45;25.00;99.90
59999;DHT22;45859;51.378;6.736;2023-05-07T10:25:22;25.10;99.90
59999;DHT22;45859;51.378;6.736;2023-05-07T10:27:50;24.60;99.90
59999;DHT22;45859;51.378;6.736;2023-05-07T10:30:28;24.80;99.90
59999;DHT22;45859;51.378;6.736;2023-05-07T10:32:56;24.80;99.90
59999;DHT22;45859;51.378;6.736;2023-05-07T10:35:32;24.60;99.90
59999;DHT22;45859;51.378;6.736;2023-05-07T10:38:02;24.90;99.90
59999;DHT22;45859;51.378;6.736;2023-05-07T10:40:28;25.30;99.90
59999;DHT22;45859;51.378;6.736;2023-05-07T10:42:57;25.60;99.90
59999;DHT22;45859;51.378;6.736;2023-05-07T10:45:25;25.60;99.90
59999;DHT22;45859;51.378;6.736;2023-05-07T10:48:10;25.70;99.90
59999;DHT22;45859;51.378;6.736;2023-05-07T10:50:38;25.50;99.90
59999;DHT22;45859;51.378;6.736;2023-05-07T10:55:48;25.40;99.90
59999;DHT22;45859;51.378;6.736;2023-05-07T10:58:27;25.80;99.90
59999;DHT22;45859;51.378;6.736;2023-05-07T11:00:58;25.70;99.90
59999;DHT22;45859;51.378;6.736;2023-05-07T11:03:24;26.10;99.90
59999;DHT22;45859;51.378;6.736;2023-05-07T11:06:13;26.10;99.90
59999;DHT22;45859;51.378;6.736;2023-05-07T11:08:57;26.30;99.90
59999;DHT22;45859;51.378;6.736;2023-05-07T11:11:49;26.70;99.90
59999;DHT22;45859;51.378;6.736;2023-05-07T11:17:07;26.80;99.90
59999;DHT22;45859;51.378;6.736;2023-05-07T11:20:08;26.90;99.90
59999;DHT22;45859;51.378;6.736;2023-05-07T11:25:06;26.80;99.90
59999;DHT22;45859;51.378;6.736;2023-05-07T11:27:32;26.60;99.90
59999;DHT22;45859;51.378;6.736;2023-05-07T11:29:58;26.90;99.90
59999;DHT22;45859;51.378;6.736;2023-05-07T11:32:25;26.70;99.90
59999;DHT22;45859;51.378;6.736;2023-05-07T11:34:52;26.80;99.90
59999;DHT22;45859;51.378;6.736;2023-05-07T11:37:19;26.50;99.90
59999;DHT22;45859;51.378;6.736;2023-05-07T11:39:45;26.40;99.90
59999;DHT22;45859;51.378;6.736;2023-05-07T11:42:30;26.30;99.90
59999;DHT22;45859;51.378;6.736;2023-05-07T11:44:56;26.60;99.90
59999;DHT22;45859;51.378;6.736;2023-05-07T11:47:22;26.40;99.90
59999;DHT22;45859;51.378;6.736;2023-05-07T11:49:50;26.40;99.90
59999;DHT22;45859;51.378;6.736;2023-05-07T11:52:17;25.90;99.90
59999;DHT22;45859;51.378;6.736;2023-05-07T11:54:56;26.00;99.90
59999;DHT22;45859;51.378;6.736;2023-05-07T11:57:24;26.10;99.90
59999;DHT22;45859;51.378;6.736;2023-05-07T11:59:56;26.00;99.90
59999;DHT22;45859;51.378;6.736;2023-05-07T12:02:23;25.80;99.90
59999;DHT22;45859;51.378;6.736;2023-05-07T12:04:54;25.40;99.90
59999;DHT22;45859;51.378;6.736;2023-05-07T12:07:20;25.30;99.90
59999;DHT22;45859;51.378;6.736;2023-05-07T12:09:47;24.40;99.90
59999;DHT22;45859;51.378;6.736;2023-05-07T12:12:13;24.20;99.90
59999;DHT22;45859;51.378;6.736;2023-05-07T12:14:45;24.00;99.90
59999;DHT22;45859;51.378;6.736;2023-05-07T12:17:12;24.00;99.90
59999;DHT22;45859;51.378;6.736;2023-05-07T12:19:40;24.40;99.90
59999;DHT22;45859;51.378;6.736;2023-05-07T12:22:09;24.60;99.90
59999;DHT22;45859;51.378;6.736;2023-05-07T12:25:01;24.40;99.90
59999;DHT22;45859;51.378;6.736;2023-05-07T12:27:28;24.40;99.90
59999;DHT22;45859;51.378;6.736;2023-05-07T12:29:54;24.30;99.90
59999;DHT22;45859;51.378;6.736;2023-05-07T12:32:21;23.80;99.90
59999;DHT22;45859;51.378;6.736;2023-05-07T12:34:49;23.50;99.90
59999;DHT22;45859;51.378;6.736;2023-05-07T12:37:15;23.40;99.90
59999;DHT22;45859;51.378;6.736;2023-05-07T12:39:47;23.60;99.90
59999;DHT22;45859;51.378;6.736;2023-05-07T12:42:16;23.60;99.90
59999;DHT22;45859;51.378;6.736;2023-05-07T12:44:45;23.50;99.90
59999;DHT22;45859;51.378;6.736;2023-05-07T12:47:11;23.30;99.90
59999;DHT22;45859;51.378;6.736;2023-05-07T12:49:38;23.30;99.90
59999;DHT22;45859;51.378;6.736;2023-05-07T12:52:05;23.30;99.90
59999;DHT22;45859;51.378;6.736;2023-05-07T12:54:32;23.30;99.90
59999;DHT22;45859;51.378;6.736;2023-05-07T12:57:06;23.10;99.90
59999;DHT22;45859;51.378;6.736;2023-05-07T12:59:40;23.10;99.90
59999;DHT22;45859;51.378;6.736;2023-05-07T13:02:07;22.80;99.90
59999;DHT22;45859;51.378;6.736;2023-05-07T13:04:34;22.70;99.90
59999;DHT22;45859;51.378;6.736;2023-05-07T13:07:00;22.90;99.90
59999;DHT22;45859;51.378;6.736;2023-05-07T13:09:26;22.90;99.90
59999;DHT22;45859;51.378;6.736;2023-05-07T13:11:52;23.00;99.90
59999;DHT22;45859;51.378;6.736;2023-05-07T13:14:17;22.90;99.90
59999;DHT22;45859;51.378;6.736;2023-05-07T13:16:45;23.30;99.90
59999;DHT22;45859;51.378;6.736;2023-05-07T13:19:11;23.30;99.90
59999;DHT22;45859;51.378;6.736;2023-05-07T13:21:36;23.10;99.90
59999;DHT22;45859;51.378;6.736;2023-05-07T13:24:02;22.80;99.90
59999;DHT22;45859;51.378;6.736;2023-05-07T13:26:30;22.70;99.90
59999;DHT22;45859;51.378;6.736;2023-05-07T13:28:56;22.40;99.90
59999;DHT22;45859;51.378;6.736;2023-05-07T13:31:22;22.10;99.90
59999;DHT22;45859;51.378;6.736;2023-05-07T13:33:47;21.90;99.90
59999;DHT22;45859;51.378;6.736;2023-05-07T13:36:14;21.70;99.90
59999;DHT22;45859;51.378;6.736;2023-05-07T13:38:40;21.30;99.90
59999;DHT22;45859;51.378;6.736;2023-05-07T13:41:05;21.10;99.90
59999;DHT22;45859;51.378;6.736;2023-05-07T13:43:31;21.00;99.90
59999;DHT22;45859;51.378;6.736;2023-05-07T13:45:59;20.80;99.90
59999;DHT22;45859;51.378;6.736;2023-05-07T13:48:25;20.60;99.90
59999;DHT22;45859;51.378;6.736;2023-05-07T13:50:51;20.50;99.90
59999;DHT22;45859;51.378;6.736;2023-05-07T13:53:17;20.30;99.90
59999;DHT22;45859;51.378;6.736;2023-05-07T13:55:44;20.00;99.90
59999;DHT22;45859;51.378;6.736;2023-05-07T13:58:10;19.00;99.90
59999;DHT22;45859;51.378;6.736;2023-05-07T14:00:36;18.30;99.90
59999;DHT22;45859;51.378;6.736;2023-05-07T14:03:03;18.00;99.90
59999;DHT22;45859;51.378;6.736;2023-05-07T14:05:29;17.60;99.90
59999;DHT22;45859;51.378;6.736;2023-05-07T14:07:57;17.40;99.90
59999;DHT22;45859;51.378;6.736;2023-05-07T14:10:23;17.30;99.90
59999;DHT22;45859;51.378;6.736;2023-05-07T14:12:48;17.10;99.90
59999;DHT22;45859;51.378;6.736;2023-05-07T14:15:15;17.00;99.90
59999;DHT22;45859;51.378;6.736;2023-05-07T14:17:41;17.40;99.90
59999;DHT22;45859;51.378;6.736;2023-05-07T14:20:08;16.90;99.90
59999;DHT22;45859;51.378;6.736;2023-05-07T14:22:34;16.90;99.90
59999;DHT22;45859;51.378;6.736;2023-05-07T14:25:00;17.00;99.90
59999;DHT22;45859;51.378;6.736;2023-05-07T14:27:25;17.10;99.90
59999;DHT22;45859;51.378;6.736;2023-05-07T14:29:51;17.10;99.90
59999;DHT22;45859;51.378;6.736;2023-05-07T14:32:17;17.10;99.90
59999;DHT22;45859;51.378;6.736;2023-05-07T14:34:44;17.10;99.90
59999;DHT22;45859;51.378;6.736;2023-05-07T14:37:11;17.30;99.90
59999;DHT22;45859;51.378;6.736;2023-05-07T14:39:37;17.60;99.90
59999;DHT22;45859;51.378;6.736;2023-05-07T14:42:02;17.60;99.90
59999;DHT22;45859;51.378;6.736;2023-05-07T14:44:28;17.70;99.90
59999;DHT22;45859;51.378;6.736;2023-05-07T14:46:54;17.70;99.90
59999;DHT22;45859;51.378;6.736;2023-05-07T14:49:20;17.70;99.90
59999;DHT22;45859;51.378;6.736;2023-05-07T14:51:46;17.60;99.90
59999;DHT22;45859;51.378;6.736;2023-05-07T14:54:13;17.60;99.90
59999;DHT22;45859;51.378;6.736;2023-05-07T14:56:39;17.60;99.90
59999;DHT22;45859;51.378;6.736;2023-05-07T14:59:05;17.60;99.90
59999;DHT22;45859;51.378;6.736;2023-05-07T15:01:31;17.60;99.90
59999;DHT22;45859;51.378;6.736;2023-05-07T15:03:57;17.50;99.90
59999;DHT22;45859;51.378;6.736;2023-05-07T15:06:22;17.60;99.90
59999;DHT22;45859;51.378;6.736;2023-05-07T15:08:48;17.60;99.90
59999;DHT22;45859;51.378;6.736;2023-05-07T15:11:14;17.70;99.90
59999;DHT22;45859;51.378;6.736;2023-05-07T15:13:42;17.70;99.90
59999;DHT22;45859;51.378;6.736;2023-05-07T15:16:08;17.70;99.90
59999;DHT22;45859;51.378;6.736;2023-05-07T15:18:34;17.60;99.90
59999;DHT22;45859;51.378;6.736;2023-05-07T15:21:00;17.50;99.90
59999;DHT22;45859;51.378;6.736;2023-05-07T15:23:26;17.30;99.90
59999;DHT22;45859;51.378;6.736;2023-05-07T15:25:52;17.40;99.90
59999;DHT22;45859;51.378;6.736;2023-05-07T15:28:18;17.30;99.90
59999;DHT22;45859;51.378;6.736;2023-05-07T15:30:44;17.30;99.90
59999;DHT22;45859;51.378;6.736;2023-05-07T15:33:10;17.20;99.90
59999;DHT22;45859;51.378;6.736;2023-05-07T15:35:36;17.20;99.90
59999;DHT22;45859;51.378;6.736;2023-05-07T15:38:02;17.10;99.90